Time;durP1;ratioP1;P1;durP2;ratioP2;P2;SDS_P1;SDS_P2;PMS_P1;PMS_P2;Temp;Humidity;BMP_temperature;BMP_pressure;BME280_temperature;BME280_humidity;BME280_pressure;Samples;Min_cycle;Max_cycle;Signal;HPM_P1;HPM_P2
2021/09/03 00:01:00;;;;;;;4.92;3.22;;;;;;;;;;1892011;76;21104;-50
2021/09/03 00:03:29;;;;;;;10.18;3.75;;;;;;;;;;1892113;74;21038;-49
2021/09/03 00:05:59;;;;;;;8.05;3.20;;;;;;;;;;1891943;74;21062;-51
2021/09/03 00:08:27;;;;;;;4.35;2.90;;;;;;;;;;1891871;74;20995;-51
2021/09/03 00:10:56;;;;;;;6.65;3.02;;;;;;;;;;1885642;76;21097;-50
2021/09/03 00:13:26;;;;;;;4.95;2.50;;;;;;;;;;1883086;76;21084;-48
2021/09/03 00:15:55;;;;;;;5.65;2.80;;;;;;;;;;1882902;76;21022;-51
2021/09/03 00:18:24;;;;;;;4.15;2.50;;;;;;;;;;1883070;76;21095;-52
2021/09/03 00:20:53;;;;;;;4.28;2.85;;;;;;;;;;1883038;75;21013;-49
2021/09/03 00:23:21;;;;;;;5.95;3.20;;;;;;;;;;1882944;76;21006;-50
2021/09/03 00:25:50;;;;;;;7.28;2.77;;;;;;;;;;1882913;75;21033;-51
2021/09/03 00:28:19;;;;;;;9.33;2.85;;;;;;;;;;1882998;76;21091;-50
2021/09/03 00:30:48;;;;;;;3.80;2.50;;;;;;;;;;1882937;75;21034;-52
2021/09/03 00:33:17;;;;;;;7.15;2.62;;;;;;;;;;1882960;76;21037;-51
2021/09/03 00:35:46;;;;;;;4.20;2.52;;;;;;;;;;1882952;76;21097;-51
2021/09/03 00:38:15;;;;;;;5.40;2.72;;;;;;;;;;1883005;76;21029;-51
2021/09/03 00:40:44;;;;;;;3.37;2.27;;;;;;;;;;1883046;75;21042;-51
2021/09/03 00:43:12;;;;;;;7.25;2.67;;;;;;;;;;1882965;75;21041;-49
2021/09/03 00:45:41;;;;;;;5.08;2.58;;;;;;;;;;1882848;75;21001;-51
2021/09/03 00:48:10;;;;;;;4.22;2.40;;;;;;;;;;1883101;76;21014;-52
2021/09/03 00:50:39;;;;;;;6.08;2.25;;;;;;;;;;1883044;75;21097;-50
2021/09/03 00:53:07;;;;;;;4.47;2.22;;;;;;;;;;1883051;76;21092;-52
2021/09/03 00:55:36;;;;;;;4.05;2.10;;;;;;;;;;1883028;75;21111;-51
2021/09/03 00:58:06;;;;;;;6.50;2.27;;;;;;;;;;1882960;76;21112;-51
2021/09/03 01:00:35;;;;;;;5.25;2.67;;;;;;;;;;1882935;75;21034;-51
2021/09/03 01:03:04;;;;;;;6.72;3.08;;;;;;;;;;1882935;75;21037;-52
2021/09/03 01:05:32;;;;;;;7.83;3.27;;;;;;;;;;1883017;75;21079;-52
2021/09/03 01:08:01;;;;;;;6.42;2.30;;;;;;;;;;1883032;75;21025;-51
2021/09/03 01:10:30;;;;;;;5.42;2.37;;;;;;;;;;1886192;75;21120;-51
2021/09/03 01:12:59;;;;;;;6.90;2.45;;;;;;;;;;1891895;74;21050;-50
2021/09/03 01:15:28;;;;;;;6.65;2.30;;;;;;;;;;1891962;75;21014;-51
2021/09/03 01:17:57;;;;;;;3.50;2.20;;;;;;;;;;1891868;74;21038;-49
2021/09/03 01:20:26;;;;;;;3.35;2.00;;;;;;;;;;1891952;75;21127;-51
2021/09/03 01:22:54;;;;;;;3.15;2.02;;;;;;;;;;1892100;75;21034;-51
2021/09/03 01:25:23;;;;;;;4.55;2.55;;;;;;;;;;1891815;74;21035;-51
2021/09/03 01:27:52;;;;;;;4.12;2.42;;;;;;;;;;1892011;74;21026;-51
2021/09/03 01:30:20;;;;;;;5.55;2.40;;;;;;;;;;1891966;76;21034;-51
2021/09/03 01:32:49;;;;;;;4.50;2.00;;;;;;;;;;1891907;75;21003;-50
2021/09/03 01:35:18;;;;;;;7.60;2.65;;;;;;;;;;1891959;75;21104;-50
2021/09/03 01:37:47;;;;;;;5.22;3.00;;;;;;;;;;1891940;75;21066;-50
2021/09/03 01:40:15;;;;;;;7.35;2.55;;;;;;;;;;1891853;75;21046;-49
2021/09/03 01:42:44;;;;;;;4.92;2.27;;;;;;;;;;1891984;76;21050;-50
2021/09/03 01:45:13;;;;;;;6.40;2.80;;;;;;;;;;1891876;75;21039;-50
2021/09/03 01:47:42;;;;;;;8.25;2.22;;;;;;;;;;1891830;75;21038;-51
2021/09/03 01:50:11;;;;;;;10.20;2.92;;;;;;;;;;1891861;75;21104;-52
2021/09/03 01:52:40;;;;;;;4.92;2.45;;;;;;;;;;1892133;75;21035;-49
2021/09/03 01:55:09;;;;;;;4.62;2.60;;;;;;;;;;1891934;76;21164;-51
2021/09/03 01:57:38;;;;;;;5.40;2.58;;;;;;;;;;1891944;75;21104;-51
2021/09/03 02:00:07;;;;;;;5.75;2.30;;;;;;;;;;1892069;76;21081;-51
2021/09/03 02:02:42;;;;;;;5.67;2.22;;;;;;;;;;1891925;76;21042;-49
2021/09/03 02:05:11;;;;;;;5.70;2.27;;;;;;;;;;1891821;76;21096;-50
2021/09/03 02:07:40;;;;;;;4.53;2.50;;;;;;;;;;1891818;74;21022;-49
2021/09/03 02:10:10;;;;;;;3.77;1.90;;;;;;;;;;1891677;75;21100;-51
2021/09/03 02:12:38;;;;;;;5.50;2.22;;;;;;;;;;1882948;75;20978;-51
2021/09/03 02:15:08;;;;;;;2.70;1.98;;;;;;;;;;1882911;76;21054;-51
2021/09/03 02:17:37;;;;;;;3.67;1.95;;;;;;;;;;1882850;75;21021;-48
2021/09/03 02:20:06;;;;;;;4.10;2.05;;;;;;;;;;1882887;76;21324;-51
2021/09/03 02:22:35;;;;;;;3.40;2.40;;;;;;;;;;1882981;75;21017;-51
2021/09/03 02:25:04;;;;;;;4.83;2.05;;;;;;;;;;1882879;76;20998;-51
2021/09/03 02:27:33;;;;;;;4.12;2.42;;;;;;;;;;1882870;75;21095;-51
2021/09/03 02:30:01;;;;;;;4.17;2.22;;;;;;;;;;1882859;75;21092;-52
2021/09/03 02:32:30;;;;;;;3.25;2.15;;;;;;;;;;1883021;75;21076;-51
2021/09/03 02:34:59;;;;;;;3.55;1.87;;;;;;;;;;1883045;76;21030;-50
2021/09/03 02:37:28;;;;;;;8.85;2.58;;;;;;;;;;1883008;76;21041;-52
2021/09/03 02:39:57;;;;;;;4.28;1.70;;;;;;;;;;1883026;76;21041;-52
2021/09/03 02:42:26;;;;;;;3.12;2.08;;;;;;;;;;1883081;75;21098;-51
2021/09/03 02:44:54;;;;;;;3.90;2.25;;;;;;;;;;1883064;75;21073;-51
2021/09/03 02:47:23;;;;;;;3.52;1.92;;;;;;;;;;1882965;76;21045;-52
2021/09/03 02:49:52;;;;;;;7.37;2.40;;;;;;;;;;1883136;76;21030;-49
2021/09/03 02:52:21;;;;;;;4.60;2.15;;;;;;;;;;1883160;75;21034;-51
2021/09/03 02:54:50;;;;;;;2.62;1.90;;;;;;;;;;1883096;76;21083;-52
2021/09/03 02:57:19;;;;;;;2.50;1.95;;;;;;;;;;1883112;76;21104;-52
2021/09/03 02:59:48;;;;;;;3.90;2.00;;;;;;;;;;1883129;76;21091;-51
2021/09/03 03:02:17;;;;;;;5.03;2.10;;;;;;;;;;1883009;75;21139;-50
2021/09/03 03:04:45;;;;;;;3.20;2.22;;;;;;;;;;1882990;75;21025;-51
2021/09/03 03:07:14;;;;;;;5.45;2.90;;;;;;;;;;1883060;76;20990;-52
2021/09/03 03:09:43;;;;;;;9.48;3.20;;;;;;;;;;1882952;75;21038;-52
2021/09/03 03:12:12;;;;;;;8.25;2.87;;;;;;;;;;1888916;75;21056;-50
2021/09/03 03:14:41;;;;;;;7.95;2.05;;;;;;;;;;1892060;76;21030;-49
2021/09/03 03:17:10;;;;;;;8.43;2.17;;;;;;;;;;1892030;74;21096;-52
2021/09/03 03:19:38;;;;;;;8.08;2.35;;;;;;;;;;1891941;75;21120;-52
2021/09/03 03:22:07;;;;;;;3.67;2.52;;;;;;;;;;1891910;74;21104;-51
2021/09/03 03:24:36;;;;;;;3.25;1.70;;;;;;;;;;1891980;74;21086;-51
2021/09/03 03:27:05;;;;;;;3.87;2.50;;;;;;;;;;1891931;76;21038;-52
2021/09/03 03:29:33;;;;;;;6.12;1.70;;;;;;;;;;1892030;76;21038;-50
2021/09/03 03:32:02;;;;;;;13.68;2.62;;;;;;;;;;1892044;75;21042;-51
2021/09/03 03:34:31;;;;;;;3.83;2.00;;;;;;;;;;1891808;75;21042;-51
2021/09/03 03:37:00;;;;;;;3.08;1.85;;;;;;;;;;1891862;75;21104;-51
2021/09/03 03:39:29;;;;;;;6.17;2.10;;;;;;;;;;1891854;76;21042;-52
2021/09/03 03:41:58;;;;;;;3.98;1.95;;;;;;;;;;1891864;75;21104;-48
2021/09/03 03:44:26;;;;;;;6.20;2.58;;;;;;;;;;1891759;75;21155;-50
2021/09/03 03:46:55;;;;;;;4.55;2.02;;;;;;;;;;1891710;74;21034;-52
2021/09/03 03:49:24;;;;;;;5.42;2.33;;;;;;;;;;1891860;74;21082;-52
2021/09/03 03:51:53;;;;;;;9.08;1.90;;;;;;;;;;1891955;74;21509;-52
2021/09/03 03:54:22;;;;;;;5.80;1.50;;;;;;;;;;1891924;76;21046;-51
2021/09/03 03:56:50;;;;;;;11.75;5.00;;;;;;;;;;1891905;74;21034;-51
2021/09/03 03:59:19;;;;;;;7.33;3.35;;;;;;;;;;1891975;74;21094;-51
2021/09/03 04:01:48;;;;;;;5.22;1.80;;;;;;;;;;1891844;75;21046;-50
2021/09/03 04:04:17;;;;;;;4.35;2.30;;;;;;;;;;1891866;75;21128;-49
2021/09/03 04:06:46;;;;;;;6.22;1.98;;;;;;;;;;1891864;76;21089;-52
2021/09/03 04:09:15;;;;;;;7.40;1.90;;;;;;;;;;1891887;76;21147;-52
2021/09/03 04:11:46;;;;;;;8.43;2.60;;;;;;;;;;1886884;75;21113;-51
2021/09/03 04:14:16;;;;;;;7.80;2.50;;;;;;;;;;1872885;75;21481;-50
2021/09/03 04:16:45;;;;;;;5.87;2.02;;;;;;;;;;1872848;75;21081;-51
2021/09/03 04:19:14;;;;;;;3.65;1.92;;;;;;;;;;1872827;77;21090;-49
2021/09/03 04:21:43;;;;;;;4.55;2.05;;;;;;;;;;1872957;76;21003;-50
2021/09/03 04:24:12;;;;;;;5.50;1.67;;;;;;;;;;1872949;77;21051;-51
2021/09/03 04:26:43;;;;;;;3.12;1.40;;;;;;;;;;1872787;75;21039;-51
2021/09/03 04:29:11;;;;;;;5.20;1.47;;;;;;;;;;1872832;75;21527;-50
2021/09/03 04:31:40;;;;;;;6.30;1.67;;;;;;;;;;1872833;76;20999;-51
2021/09/03 04:34:08;;;;;;;5.72;2.60;;;;;;;;;;1872830;75;21038;-51
2021/09/03 04:36:37;;;;;;;5.42;1.98;;;;;;;;;;1872912;76;21105;-50
2021/09/03 04:39:06;;;;;;;4.15;1.95;;;;;;;;;;1872876;77;21015;-52
2021/09/03 04:41:34;;;;;;;3.17;1.40;;;;;;;;;;1873000;75;21035;-52
2021/09/03 04:44:03;;;;;;;2.30;1.40;;;;;;;;;;1872968;76;21164;-50
2021/09/03 04:46:32;;;;;;;4.37;2.22;;;;;;;;;;1872930;76;21474;-52
2021/09/03 04:49:01;;;;;;;3.15;1.98;;;;;;;;;;1872944;76;21074;-50
2021/09/03 04:51:30;;;;;;;2.83;1.50;;;;;;;;;;1872935;76;21039;-52
2021/09/03 04:53:58;;;;;;;2.70;1.35;;;;;;;;;;1872805;75;21099;-52
2021/09/03 04:56:28;;;;;;;2.05;1.40;;;;;;;;;;1872824;76;21121;-51
2021/09/03 04:58:57;;;;;;;5.45;1.60;;;;;;;;;;1872827;77;21086;-51
2021/09/03 05:01:25;;;;;;;2.85;1.70;;;;;;;;;;1872885;75;21101;-52
2021/09/03 05:03:54;;;;;;;2.42;1.65;;;;;;;;;;1872804;75;21047;-52
2021/09/03 05:06:23;;;;;;;2.75;2.02;;;;;;;;;;1872774;75;21082;-52
2021/09/03 05:08:52;;;;;;;5.75;2.40;;;;;;;;;;1872794;76;21020;-52
2021/09/03 05:11:21;;;;;;;5.72;3.40;;;;;;;;;;1872836;75;21043;-52
2021/09/03 05:13:50;;;;;;;3.65;2.20;;;;;;;;;;1872891;76;21056;-49
2021/09/03 05:16:18;;;;;;;8.08;3.00;;;;;;;;;;1872916;76;21029;-50
2021/09/03 05:18:48;;;;;;;5.65;3.15;;;;;;;;;;1872786;75;21093;-52
2021/09/03 05:21:16;;;;;;;6.75;3.27;;;;;;;;;;1872852;76;21095;-52
2021/09/03 05:23:45;;;;;;;12.03;5.15;;;;;;;;;;1872834;77;21043;-49
2021/09/03 05:26:14;;;;;;;7.35;4.28;;;;;;;;;;1872889;77;21035;-51
2021/09/03 05:28:43;;;;;;;9.53;3.92;;;;;;;;;;1872790;77;21031;-50
2021/09/03 05:31:12;;;;;;;10.13;5.30;;;;;;;;;;1872798;76;21096;-51
2021/09/03 05:33:41;;;;;;;6.87;3.58;;;;;;;;;;1872734;76;21039;-53
2021/09/03 05:36:09;;;;;;;6.55;2.72;;;;;;;;;;1872825;76;21035;-51
2021/09/03 05:38:38;;;;;;;6.72;1.90;;;;;;;;;;1872903;75;21039;-53
2021/09/03 05:41:07;;;;;;;2.95;1.80;;;;;;;;;;1872854;76;21110;-51
2021/09/03 05:43:36;;;;;;;2.87;1.85;;;;;;;;;;1872669;77;21086;-51
2021/09/03 05:46:05;;;;;;;4.95;2.25;;;;;;;;;;1872654;76;21041;-52
2021/09/03 05:48:34;;;;;;;4.67;1.72;;;;;;;;;;1872829;75;21019;-53
2021/09/03 05:51:03;;;;;;;3.45;1.80;;;;;;;;;;1872922;77;21043;-51
2021/09/03 05:53:31;;;;;;;7.78;1.60;;;;;;;;;;1872781;75;21039;-51
2021/09/03 05:56:00;;;;;;;4.03;1.52;;;;;;;;;;1872768;77;20995;-51
2021/09/03 05:58:29;;;;;;;3.80;1.55;;;;;;;;;;1872733;75;21084;-51
2021/09/03 06:00:58;;;;;;;7.20;2.90;;;;;;;;;;1872802;77;21055;-52
2021/09/03 06:03:26;;;;;;;10.85;2.77;;;;;;;;;;1872800;77;21183;-49
2021/09/03 06:05:55;;;;;;;3.58;1.62;;;;;;;;;;1872815;75;21042;-53
2021/09/03 06:08:24;;;;;;;2.70;1.60;;;;;;;;;;1872797;77;21043;-51
2021/09/03 06:10:53;;;;;;;4.08;2.40;;;;;;;;;;1872872;75;21043;-52
2021/09/03 06:13:21;;;;;;;7.80;2.30;;;;;;;;;;1883600;74;21140;-50
2021/09/03 06:15:50;;;;;;;5.40;3.17;;;;;;;;;;1891817;74;21117;-51
2021/09/03 06:18:19;;;;;;;5.90;3.70;;;;;;;;;;1891735;75;21036;-52
2021/09/03 06:20:48;;;;;;;8.63;3.12;;;;;;;;;;1891924;74;21042;-51
2021/09/03 06:23:17;;;;;;;5.72;2.77;;;;;;;;;;1891782;75;21054;-50
2021/09/03 06:25:46;;;;;;;5.67;3.50;;;;;;;;;;1891812;75;21078;-51
2021/09/03 06:28:14;;;;;;;130.90;51.63;;;;;;;;;;1891900;74;21026;-50
2021/09/03 06:30:43;;;;;;;136.75;49.58;;;;;;;;;;1891804;76;21038;-51
2021/09/03 06:33:12;;;;;;;151.57;53.35;;;;;;;;;;1891769;76;21108;-51
2021/09/03 06:35:41;;;;;;;55.90;22.95;;;;;;;;;;1891676;74;21043;-51
2021/09/03 06:38:10;;;;;;;13.95;6.17;;;;;;;;;;1891643;76;21042;-49
2021/09/03 06:40:39;;;;;;;6.90;3.27;;;;;;;;;;1891836;76;21043;-52
2021/09/03 06:43:08;;;;;;;3.60;1.80;;;;;;;;;;1891825;76;21042;-52
2021/09/03 06:45:36;;;;;;;5.05;2.20;;;;;;;;;;1891756;76;21088;-51
2021/09/03 06:48:05;;;;;;;3.55;1.98;;;;;;;;;;1891809;76;21038;-51
2021/09/03 06:50:34;;;;;;;2.30;1.40;;;;;;;;;;1891752;75;21043;-52
2021/09/03 06:53:03;;;;;;;3.72;1.37;;;;;;;;;;1891828;74;21038;-51
2021/09/03 06:55:32;;;;;;;1.60;1.30;;;;;;;;;;1891768;74;21022;-52
2021/09/03 06:58:00;;;;;;;4.20;1.82;;;;;;;;;;1891840;74;21042;-50
2021/09/03 07:00:29;;;;;;;3.92;2.30;;;;;;;;;;1891751;76;21039;-52
2021/09/03 07:03:00;;;;;;;5.22;2.30;;;;;;;;;;1891770;75;21111;-51
2021/09/03 07:05:28;;;;;;;5.08;2.25;;;;;;;;;;1891720;75;21104;-52
2021/09/03 07:07:57;;;;;;;4.37;2.20;;;;;;;;;;1891776;74;21085;-52
2021/09/03 07:10:25;;;;;;;2.45;1.85;;;;;;;;;;1891813;76;21014;-51
2021/09/03 07:12:54;;;;;;;4.83;2.08;;;;;;;;;;1891622;74;21137;-51
2021/09/03 07:15:23;;;;;;;9.38;2.70;;;;;;;;;;1891843;75;21011;-52
2021/09/03 07:17:52;;;;;;;3.62;2.02;;;;;;;;;;1891686;75;21042;-52
2021/09/03 07:20:21;;;;;;;5.28;2.77;;;;;;;;;;1891868;76;21038;-49
2021/09/03 07:22:50;;;;;;;2.05;1.75;;;;;;;;;;1891861;74;21104;-51
2021/09/03 07:25:19;;;;;;;6.37;2.17;;;;;;;;;;1891923;74;21108;-51
2021/09/03 07:27:48;;;;;;;6.12;1.72;;;;;;;;;;1891849;75;21022;-51
2021/09/03 07:30:17;;;;;;;5.78;2.80;;;;;;;;;;1891973;75;21081;-52
2021/09/03 07:32:47;;;;;;;3.77;2.30;;;;;;;;;;1891873;75;21042;-52
2021/09/03 07:35:16;;;;;;;6.83;2.27;;;;;;;;;;1891895;75;21014;-52
2021/09/03 07:37:45;;;;;;;7.37;2.00;;;;;;;;;;1891797;76;21061;-53
2021/09/03 07:40:14;;;;;;;3.37;2.12;;;;;;;;;;1891839;76;21015;-51
2021/09/03 07:42:42;;;;;;;4.87;1.70;;;;;;;;;;1891953;74;21022;-51
2021/09/03 07:45:11;;;;;;;2.15;1.35;;;;;;;;;;1891965;75;21102;-50
2021/09/03 07:47:40;;;;;;;3.87;1.80;;;;;;;;;;1891767;74;21046;-51
2021/09/03 07:50:10;;;;;;;16.15;7.87;;;;;;;;;;1891921;76;21038;-50
2021/09/03 07:52:38;;;;;;;12.53;5.28;;;;;;;;;;1891919;74;21002;-52
2021/09/03 07:55:08;;;;;;;12.78;4.28;;;;;;;;;;1891843;74;21066;-52
2021/09/03 07:57:36;;;;;;;4.78;2.00;;;;;;;;;;1891821;76;21143;-51
2021/09/03 08:00:06;;;;;;;5.70;2.75;;;;;;;;;;1891769;76;21038;-51
2021/09/03 08:02:35;;;;;;;4.72;2.87;;;;;;;;;;1891603;74;21034;-50
2021/09/03 08:05:05;;;;;;;17.07;7.83;;;;;;;;;;1891804;76;21092;-50
2021/09/03 08:07:50;;;;;;;6.85;3.60;;;;;;;;;;1890156;74;21042;-49
2021/09/03 08:10:26;;;;;;;4.35;2.33;;;;;;;;;;1917085;74;21034;-51
2021/09/03 08:13:12;;;;;;;7.83;3.20;;;;;;;;;;1923802;74;21613;-49
2021/09/03 08:15:56;;;;;;;4.97;1.98;;;;;;;;;;1881880;76;21077;-50
2021/09/03 08:18:34;;;;;;;2.83;1.45;;;;;;;;;;1882015;75;21005;-51
2021/09/03 08:21:11;;;;;;;4.33;2.00;;;;;;;;;;1879474;76;21206;-49
2021/09/03 08:23:45;;;;;;;4.33;1.62;;;;;;;;;;1880408;75;21066;-54
2021/09/03 08:26:15;;;;;;;3.40;1.60;;;;;;;;;;1881640;76;21030;-51
2021/09/03 08:28:44;;;;;;;4.92;2.55;;;;;;;;;;1881183;75;21083;-49
2021/09/03 08:31:13;;;;;;;4.08;1.82;;;;;;;;;;1881463;76;21095;-51
2021/09/03 08:33:42;;;;;;;4.00;2.30;;;;;;;;;;1881325;76;21089;-51
2021/09/03 08:36:11;;;;;;;4.83;2.10;;;;;;;;;;1881122;75;21147;-53
2021/09/03 08:38:40;;;;;;;5.10;2.62;;;;;;;;;;1881476;76;21107;-51
2021/09/03 08:41:08;;;;;;;4.40;2.50;;;;;;;;;;1881304;75;21057;-50
2021/09/03 08:43:37;;;;;;;4.45;2.30;;;;;;;;;;1881290;75;21096;-50
2021/09/03 08:46:07;;;;;;;3.58;2.45;;;;;;;;;;1881427;76;21081;-50
2021/09/03 08:48:35;;;;;;;4.08;1.90;;;;;;;;;;1881415;76;21069;-49
2021/09/03 08:51:04;;;;;;;6.17;2.90;;;;;;;;;;1881398;75;21028;-48
2021/09/03 08:53:33;;;;;;;5.10;2.17;;;;;;;;;;1881369;76;21158;-49
2021/09/03 08:56:02;;;;;;;7.62;4.28;;;;;;;;;;1880046;76;21092;-51
2021/09/03 08:58:30;;;;;;;9.80;4.08;;;;;;;;;;1881289;76;21057;-53
2021/09/03 09:01:06;;;;;;;6.70;4.42;;;;;;;;;;1881519;76;21033;-47
2021/09/03 09:03:36;;;;;;;2.75;2.02;;;;;;;;;;1881614;75;21132;-52
2021/09/03 09:06:05;;;;;;;5.60;2.35;;;;;;;;;;1881533;76;21507;-51
2021/09/03 09:08:35;;;;;;;4.45;2.72;;;;;;;;;;1881705;76;21045;-51
2021/09/03 09:11:05;;;;;;;2.80;1.98;;;;;;;;;;1881495;75;21084;-51
2021/09/03 09:13:39;;;;;;;3.55;2.00;;;;;;;;;;1883482;74;21135;-52
2021/09/03 09:16:09;;;;;;;6.62;2.80;;;;;;;;;;1914106;75;21082;-51
2021/09/03 09:18:39;;;;;;;15.25;6.28;;;;;;;;;;1912048;75;21086;-51
2021/09/03 09:21:12;;;;;;;19.23;9.38;;;;;;;;;;1912257;75;21164;-50
2021/09/03 09:23:54;;;;;;;7.08;3.70;;;;;;;;;;1914117;75;21043;-50
2021/09/03 09:26:24;;;;;;;3.58;2.12;;;;;;;;;;1914195;75;21706;-51
2021/09/03 09:28:53;;;;;;;4.90;1.72;;;;;;;;;;1914040;75;21117;-51
2021/09/03 09:31:29;;;;;;;2.65;1.50;;;;;;;;;;1914205;75;20987;-50
2021/09/03 09:33:58;;;;;;;7.83;3.22;;;;;;;;;;1913270;75;21159;-50
2021/09/03 09:36:28;;;;;;;11.68;4.78;;;;;;;;;;1914213;75;21023;-49
2021/09/03 09:38:58;;;;;;;35.63;16.60;;;;;;;;;;1912119;75;21047;-47
2021/09/03 09:41:26;;;;;;;5.28;2.85;;;;;;;;;;1914254;75;21011;-46
2021/09/03 09:43:56;;;;;;;7.47;2.27;;;;;;;;;;1913964;75;21117;-46
2021/09/03 09:46:25;;;;;;;12.95;6.30;;;;;;;;;;1913967;75;21051;-47
2021/09/03 09:48:56;;;;;;;18.48;8.18;;;;;;;;;;1913958;75;21501;-46
2021/09/03 09:51:32;;;;;;;33.13;16.25;;;;;;;;;;1913916;75;21074;-45
2021/09/03 09:54:05;;;;;;;48.35;21.97;;;;;;;;;;1904048;75;21094;-45
2021/09/03 09:56:35;;;;;;;39.80;18.20;;;;;;;;;;1914047;75;21006;-48
2021/09/03 09:59:06;;;;;;;13.40;5.78;;;;;;;;;;1914084;75;21097;-48
2021/09/03 10:01:35;;;;;;;14.80;6.65;;;;;;;;;;1913874;75;21085;-46
2021/09/03 10:04:05;;;;;;;7.47;3.92;;;;;;;;;;1913919;75;21453;-49
2021/09/03 10:06:35;;;;;;;10.90;5.10;;;;;;;;;;1913980;75;21019;-50
2021/09/03 10:09:06;;;;;;;31.10;13.43;;;;;;;;;;1914032;75;21035;-49
2021/09/03 10:11:36;;;;;;;13.70;6.87;;;;;;;;;;1913950;75;21096;-49
2021/09/03 10:14:06;;;;;;;9.58;4.42;;;;;;;;;;1914480;74;21540;-47
2021/09/03 10:16:36;;;;;;;13.15;5.03;;;;;;;;;;1923960;74;21011;-49
2021/09/03 10:19:08;;;;;;;5.35;2.77;;;;;;;;;;1923867;74;21104;-49
2021/09/03 10:21:39;;;;;;;3.17;1.65;;;;;;;;;;1923853;74;20991;-47
2021/09/03 10:24:08;;;;;;;3.60;1.62;;;;;;;;;;1923774;74;21066;-50
2021/09/03 10:26:41;;;;;;;5.78;2.12;;;;;;;;;;1923312;74;21058;-47
2021/09/03 10:29:17;;;;;;;22.62;10.28;;;;;;;;;;1922984;74;21082;-48
2021/09/03 10:32:04;;;;;;;26.62;11.18;;;;;;;;;;1923708;74;21071;-47
2021/09/03 10:34:54;;;;;;;14.23;5.85;;;;;;;;;;1922150;74;21098;-47
2021/09/03 10:37:25;;;;;;;6.97;2.72;;;;;;;;;;1923304;74;21105;-46
2021/09/03 10:39:55;;;;;;;4.15;1.35;;;;;;;;;;1919940;74;21058;-49
2021/09/03 10:42:38;;;;;;;3.25;1.35;;;;;;;;;;1923031;74;21066;-47
2021/09/03 10:45:08;;;;;;;1.95;1.10;;;;;;;;;;1923073;74;21077;-50
2021/09/03 10:47:47;;;;;;;4.00;2.08;;;;;;;;;;1923213;74;21042;-50
2021/09/03 10:50:17;;;;;;;5.08;1.95;;;;;;;;;;1914609;74;21041;-47
2021/09/03 10:53:05;;;;;;;4.58;2.05;;;;;;;;;;1890188;76;20995;-46
2021/09/03 10:55:52;;;;;;;29.80;10.88;;;;;;;;;;1890214;76;21088;-48
2021/09/03 10:58:34;;;;;;;12.73;5.97;;;;;;;;;;1890389;76;21070;-49
2021/09/03 11:01:13;;;;;;;7.72;3.50;;;;;;;;;;1890852;76;20994;-45
2021/09/03 11:03:44;;;;;;;14.98;6.03;;;;;;;;;;1890446;74;21018;-49
2021/09/03 11:06:16;;;;;;;4.92;1.92;;;;;;;;;;1890831;75;21046;-48
2021/09/03 11:08:45;;;;;;;24.90;10.43;;;;;;;;;;1891799;75;21113;-48
2021/09/03 11:11:33;;;;;;;12.88;4.67;;;;;;;;;;1890616;76;21165;-50
2021/09/03 11:14:02;;;;;;;10.40;4.53;;;;;;;;;;1891619;75;21088;-49
2021/09/03 11:16:46;;;;;;;9.18;2.85;;;;;;;;;;1875203;76;21055;-46
2021/09/03 11:19:13;;;;;;;7.75;1.72;;;;;;;;;;1872243;75;21122;-47
2021/09/03 11:21:46;;;;;;;2.52;1.05;;;;;;;;;;1872936;75;21187;-49
2021/09/03 11:24:15;;;;;;;7.58;3.15;;;;;;;;;;1873010;77;21074;-46
2021/09/03 11:26:44;;;;;;;4.75;1.98;;;;;;;;;;1873045;75;21027;-49
2021/09/03 11:29:29;;;;;;;9.98;3.98;;;;;;;;;;1872982;77;21105;-47
2021/09/03 11:31:57;;;;;;;;;;;;;;;;;;1875258;75;21425;-50
2021/09/03 11:34:43;;;;;;;7.85;2.35;;;;;;;;;;1872998;76;20365;-50
2021/09/03 11:37:19;;;;;;;3.80;1.62;;;;;;;;;;1872935;75;21023;-49
2021/09/03 11:39:47;;;;;;;7.45;2.92;;;;;;;;;;1873023;77;21092;-46
2021/09/03 11:42:24;;;;;;;2.25;1.32;;;;;;;;;;1872857;75;20999;-47
2021/09/03 11:44:53;;;;;;;5.58;1.82;;;;;;;;;;1873082;77;21516;-47
2021/09/03 11:47:35;;;;;;;7.40;2.55;;;;;;;;;;1872319;75;21031;-49
2021/09/03 11:50:08;;;;;;;8.58;3.35;;;;;;;;;;1873007;75;21117;-48
2021/09/03 11:52:36;;;;;;;6.22;2.62;;;;;;;;;;1873058;75;21457;-46
2021/09/03 11:55:06;;;;;;;2.90;1.60;;;;;;;;;;1873027;75;21035;-47
2021/09/03 11:57:39;;;;;;;1.92;1.30;;;;;;;;;;1873057;75;21039;-48
2021/09/03 12:00:08;;;;;;;3.70;1.62;;;;;;;;;;1868772;76;21027;-47
2021/09/03 12:02:38;;;;;;;5.83;1.85;;;;;;;;;;1872729;76;21356;-47
2021/09/03 12:05:08;;;;;;;11.75;1.60;;;;;;;;;;1872762;75;21043;-50
2021/09/03 12:07:37;;;;;;;4.10;1.90;;;;;;;;;;1872835;75;21000;-51
2021/09/03 12:10:06;;;;;;;4.60;1.60;;;;;;;;;;1872860;76;21100;-51
2021/09/03 12:12:35;;;;;;;2.92;1.20;;;;;;;;;;1872924;75;21039;-50
2021/09/03 12:15:04;;;;;;;4.15;1.22;;;;;;;;;;1873720;75;21003;-49
2021/09/03 12:17:41;;;;;;;0.82;0.60;;;;;;;;;;1882952;76;21037;-48
2021/09/03 12:20:16;;;;;;;2.77;1.25;;;;;;;;;;1882356;76;21018;-49
2021/09/03 12:22:49;;;;;;;3.20;1.45;;;;;;;;;;1882886;75;21041;-49
2021/09/03 12:25:18;;;;;;;2.33;1.20;;;;;;;;;;1883061;75;21060;-48
2021/09/03 12:28:04;;;;;;;3.05;1.92;;;;;;;;;;1882826;76;21017;-48
2021/09/03 12:30:33;;;;;;;4.35;1.10;;;;;;;;;;1882875;76;21041;-50
2021/09/03 12:33:20;;;;;;;3.50;1.30;;;;;;;;;;1882881;75;21097;-49
2021/09/03 12:35:49;;;;;;;5.03;2.00;;;;;;;;;;1882862;75;21089;-48
2021/09/03 12:38:19;;;;;;;25.08;10.50;;;;;;;;;;1882816;75;21069;-46
2021/09/03 12:40:49;;;;;;;10.43;4.33;;;;;;;;;;1881089;76;21088;-49
2021/09/03 12:43:18;;;;;;;6.65;2.90;;;;;;;;;;1880512;76;21064;-50
2021/09/03 12:45:47;;;;;;;11.88;3.20;;;;;;;;;;1882837;76;21034;-47
2021/09/03 12:48:16;;;;;;;6.72;2.22;;;;;;;;;;1882909;76;21029;-47
2021/09/03 12:50:45;;;;;;;5.45;2.50;;;;;;;;;;1883071;75;21002;-50
2021/09/03 12:53:20;;;;;;;8.28;3.40;;;;;;;;;;1882888;75;21554;-50
2021/09/03 12:55:49;;;;;;;6.72;2.90;;;;;;;;;;1883055;75;21154;-47
2021/09/03 12:58:18;;;;;;;13.22;4.87;;;;;;;;;;1882907;75;21001;-48
2021/09/03 13:00:47;;;;;;;7.78;2.47;;;;;;;;;;1883010;76;21045;-48
2021/09/03 13:03:15;;;;;;;9.43;3.08;;;;;;;;;;1882891;76;21033;-49
2021/09/03 13:05:45;;;;;;;14.75;5.78;;;;;;;;;;1882907;75;21107;-48
2021/09/03 13:08:14;;;;;;;3.30;1.67;;;;;;;;;;1882939;75;21033;-50
2021/09/03 13:10:42;;;;;;;2.05;1.00;;;;;;;;;;1883050;75;21033;-50
2021/09/03 13:13:11;;;;;;;4.55;1.25;;;;;;;;;;1850957;76;21042;-51
2021/09/03 13:15:40;;;;;;;1.80;0.80;;;;;;;;;;1881273;75;21125;-50
2021/09/03 13:18:09;;;;;;;1.65;1.15;;;;;;;;;;1872742;75;21140;-50
2021/09/03 13:20:38;;;;;;;2.15;1.17;;;;;;;;;;1872966;76;21031;-51
2021/09/03 13:23:07;;;;;;;2.25;1.20;;;;;;;;;;1872775;77;21085;-49
2021/09/03 13:25:36;;;;;;;2.05;0.93;;;;;;;;;;1872770;76;21074;-48
2021/09/03 13:28:05;;;;;;;1.32;1.00;;;;;;;;;;1872907;77;21034;-51
2021/09/03 13:30:34;;;;;;;1.50;0.80;;;;;;;;;;1872891;75;21043;-51
2021/09/03 13:33:03;;;;;;;3.08;0.98;;;;;;;;;;1872851;75;21039;-50
2021/09/03 13:35:32;;;;;;;1.77;0.90;;;;;;;;;;1872971;76;21035;-51
2021/09/03 13:38:00;;;;;;;1.20;0.70;;;;;;;;;;1872957;77;21035;-51
2021/09/03 13:40:29;;;;;;;5.87;2.67;;;;;;;;;;1872939;75;21074;-51
2021/09/03 13:42:58;;;;;;;5.70;0.90;;;;;;;;;;1873141;76;21019;-49
2021/09/03 13:45:27;;;;;;;4.85;1.45;;;;;;;;;;1872907;75;21028;-52
2021/09/03 13:47:56;;;;;;;2.83;1.47;;;;;;;;;;1872838;77;21168;-48
2021/09/03 13:50:25;;;;;;;1.85;0.85;;;;;;;;;;1872829;75;21007;-50
2021/09/03 13:52:53;;;;;;;4.45;1.20;;;;;;;;;;1872854;75;21047;-50
2021/09/03 13:55:22;;;;;;;10.40;3.58;;;;;;;;;;1872856;75;21082;-50
2021/09/03 13:57:51;;;;;;;4.37;2.02;;;;;;;;;;1872667;75;21116;-50
2021/09/03 14:00:20;;;;;;;2.62;1.10;;;;;;;;;;1872630;77;21113;-48
2021/09/03 14:02:49;;;;;;;6.83;1.87;;;;;;;;;;1872812;75;21144;-49
2021/09/03 14:05:18;;;;;;;1.32;0.90;;;;;;;;;;1872839;76;21035;-49
2021/09/03 14:07:47;;;;;;;3.30;0.80;;;;;;;;;;1872828;77;21194;-49
2021/09/03 14:10:16;;;;;;;4.90;1.02;;;;;;;;;;1872865;75;21109;-48
2021/09/03 14:12:44;;;;;;;1.47;0.75;;;;;;;;;;1872894;75;21039;-50
2021/09/03 14:15:13;;;;;;;1.80;1.10;;;;;;;;;;1872885;77;21035;-49
2021/09/03 14:17:42;;;;;;;3.10;0.95;;;;;;;;;;1888119;74;21026;-49
2021/09/03 14:20:11;;;;;;;1.22;0.70;;;;;;;;;;1891763;75;21112;-47
2021/09/03 14:22:40;;;;;;;5.25;0.93;;;;;;;;;;1891865;74;21018;-49
2021/09/03 14:25:10;;;;;;;2.67;0.90;;;;;;;;;;1891904;75;21038;-48
2021/09/03 14:27:39;;;;;;;1.98;0.80;;;;;;;;;;1891881;74;21077;-50
2021/09/03 14:30:08;;;;;;;2.90;0.90;;;;;;;;;;1891959;74;21054;-49
2021/09/03 14:32:37;;;;;;;22.55;8.78;;;;;;;;;;1891922;75;21050;-51
2021/09/03 14:35:06;;;;;;;8.83;3.72;;;;;;;;;;1892002;76;21096;-49
2021/09/03 14:37:35;;;;;;;12.45;3.85;;;;;;;;;;1891947;76;21026;-47
2021/09/03 14:40:05;;;;;;;2.87;1.47;;;;;;;;;;1891968;75;21096;-50
2021/09/03 14:42:34;;;;;;;16.62;6.78;;;;;;;;;;1891159;75;21030;-50
2021/09/03 14:45:03;;;;;;;1.98;1.35;;;;;;;;;;1891893;74;21002;-51
2021/09/03 14:47:32;;;;;;;4.45;2.17;;;;;;;;;;1891963;74;21030;-50
2021/09/03 14:50:01;;;;;;;1.47;0.90;;;;;;;;;;1892004;74;21100;-49
2021/09/03 14:52:29;;;;;;;2.55;1.12;;;;;;;;;;1891956;76;21073;-50
2021/09/03 14:54:58;;;;;;;5.87;1.45;;;;;;;;;;1891951;75;21043;-50
2021/09/03 14:57:27;;;;;;;4.60;2.27;;;;;;;;;;1891875;74;21054;-50